Time;durP1;ratioP1;P1;durP2;ratioP2;P2;SDS_P1;SDS_P2;PMS_P1;PMS_P2;Temp;Humidity;BMP_temperature;BMP_pressure;BME280_temperature;BME280_humidity;BME280_pressure;Samples;Min_cycle;Max_cycle;Signal;HPM_P1;HPM_P2
2021/12/08 00:00:37;;;;;;;7.97;5.00;;;;;;;0.60;87.65;94772.34;1748221;82;21034;-72
2021/12/08 00:03:07;;;;;;;8.28;4.95;;;;;;;0.51;87.78;94786.58;1748837;81;21015;-73
2021/12/08 00:05:36;;;;;;;9.20;5.30;;;;;;;0.48;87.73;94783.53;1748630;82;21464;-73
2021/12/08 00:08:05;;;;;;;7.63;4.80;;;;;;;0.47;87.77;94779.19;1748655;82;21456;-72
2021/12/08 00:13:09;;;;;;;8.83;5.50;;;;;;;0.45;88.28;94780.03;1748368;82;21043;-72
2021/12/08 00:15:46;;;;;;;9.77;5.67;;;;;;;0.48;88.32;94783.53;1748565;82;20951;-72
2021/12/08 00:18:18;;;;;;;8.67;5.33;;;;;;;0.49;88.39;94781.80;1746890;82;21038;-72
2021/12/08 00:20:47;;;;;;;9.73;5.20;;;;;;;0.45;88.50;94784.78;1748738;81;21527;-72
2021/12/08 00:23:16;;;;;;;8.23;4.93;;;;;;;0.42;88.58;94792.12;1748410;81;21136;-72
2021/12/08 00:25:43;;;;;;;8.77;5.37;;;;;;;0.44;88.69;94786.95;1748770;82;21010;-72
2021/12/08 00:28:11;;;;;;;9.30;5.40;;;;;;;0.46;88.80;94789.14;1748427;82;21026;-72
2021/12/08 00:30:43;;;;;;;8.40;4.90;;;;;;;0.45;88.80;94797.77;1748294;81;21014;-72
2021/12/08 00:33:11;;;;;;;10.47;5.20;;;;;;;0.43;88.74;94793.88;1748744;82;21062;-73
2021/12/08 00:35:40;;;;;;;8.00;4.90;;;;;;;0.45;88.72;94799.50;1750733;82;21026;-72
2021/12/08 00:38:08;;;;;;;8.30;5.13;;;;;;;0.46;88.67;94794.33;1754052;82;21038;-72
2021/12/08 00:40:35;;;;;;;9.57;5.47;;;;;;;0.44;88.61;94799.93;1754254;82;21496;-72
2021/12/08 00:43:05;;;;;;;9.60;4.90;;;;;;;0.51;88.81;94803.45;1754023;82;21023;-72
2021/12/08 00:45:34;;;;;;;7.37;4.53;;;;;;;0.53;88.75;94803.91;1754166;81;21014;-72
2021/12/08 00:48:02;;;;;;;8.47;5.00;;;;;;;0.56;88.57;94810.41;1754195;82;21014;-72
2021/12/08 00:50:33;;;;;;;8.43;5.40;;;;;;;0.56;88.61;94810.84;1753880;82;21041;-72
2021/12/08 00:53:00;;;;;;;8.30;4.87;;;;;;;0.56;88.43;94816.89;1754055;82;21053;-72
2021/12/08 00:55:28;;;;;;;9.53;5.87;;;;;;;0.55;88.31;94819.47;1753869;81;21026;-72
2021/12/08 00:57:55;;;;;;;11.27;5.73;;;;;;;0.53;88.37;94817.28;1754123;82;21018;-72
2021/12/08 01:00:30;;;;;;;11.03;5.70;;;;;;;0.47;88.06;94821.14;1753979;82;21026;-72
2021/12/08 01:02:58;;;;;;;9.00;5.43;;;;;;;0.42;88.19;94821.97;1752478;82;21065;-73
2021/12/08 01:05:30;;;;;;;10.97;6.20;;;;;;;0.40;88.20;94812.43;1749309;81;21042;-72
2021/12/08 01:07:57;;;;;;;11.33;6.27;;;;;;;0.43;88.34;94822.42;1754272;82;21014;-72
2021/12/08 01:10:28;;;;;;;12.17;6.17;;;;;;;0.39;88.35;94818.05;1753902;81;21093;-72
2021/12/08 01:12:56;;;;;;;6.90;4.83;;;;;;;0.36;88.49;94815.45;1754174;82;21038;-72
2021/12/08 01:15:26;;;;;;;6.77;4.50;;;;;;;0.34;88.49;94809.36;1754139;81;20991;-73
2021/12/08 01:17:54;;;;;;;8.43;5.00;;;;;;;0.26;88.48;94808.45;1754308;81;21523;-72
2021/12/08 01:20:21;;;;;;;9.07;5.47;;;;;;;0.20;88.54;94813.16;1754219;81;20978;-72
2021/12/08 01:22:48;;;;;;;8.87;5.17;;;;;;;0.21;88.62;94814.02;1754003;82;21049;-72
2021/12/08 01:25:15;;;;;;;9.73;5.63;;;;;;;0.15;88.80;94810.95;1753909;81;21058;-72
2021/12/08 01:27:42;;;;;;;6.63;4.17;;;;;;;0.11;88.91;94807.88;1754414;81;20963;-72
2021/12/08 01:30:11;;;;;;;9.40;5.40;;;;;;;0.05;88.98;94805.25;1754020;82;21090;-72
2021/12/08 01:32:38;;;;;;;8.53;5.23;;;;;;;0.01;89.00;94796.98;1754394;82;21536;-72
2021/12/08 01:35:07;;;;;;;9.30;5.33;;;;;;;0.02;89.08;94800.02;1754093;82;21030;-72
2021/12/08 01:37:34;;;;;;;9.87;5.53;;;;;;;0.01;89.26;94800.02;1756688;82;21504;-72
2021/12/08 01:40:06;;;;;;;11.47;6.10;;;;;;;0.02;89.30;94800.44;1756682;82;21006;-72
2021/12/08 01:42:41;;;;;;;10.90;6.50;;;;;;;-0.01;89.41;94805.17;1756697;82;21133;-72
2021/12/08 01:47:50;;;;;;;12.27;6.90;;;;;;;-0.08;89.63;94802.94;1756560;82;21114;-72
2021/12/08 01:50:16;;;;;;;11.40;6.80;;;;;;;-0.07;89.66;94799.52;1756344;82;21105;-72
2021/12/08 01:52:43;;;;;;;12.33;6.13;;;;;;;-0.02;89.69;94809.50;1756216;81;21569;-72
2021/12/08 01:55:11;;;;;;;11.63;6.50;;;;;;;0.03;89.86;94805.66;1756395;82;21093;-72
2021/12/08 01:57:38;;;;;;;11.07;5.43;;;;;;;0.09;89.75;94807.43;1756970;81;21034;-72
2021/12/08 02:00:14;;;;;;;13.23;7.30;;;;;;;0.08;89.56;94810.45;1751686;82;21073;-72
2021/12/08 02:02:40;;;;;;;9.33;5.70;;;;;;;0.08;89.67;94805.27;1756266;82;20987;-72
2021/12/08 02:05:08;;;;;;;11.07;6.73;;;;;;;0.07;89.45;94807.41;1756419;82;21098;-73
2021/12/08 02:07:35;;;;;;;12.63;7.17;;;;;;;0.05;89.40;94809.55;1756101;82;21065;-72
2021/12/08 02:10:05;;;;;;;12.13;6.00;;;;;;;0.13;89.74;94803.58;1756625;82;21081;-72
2021/12/08 02:12:36;;;;;;;10.40;5.80;;;;;;;0.15;89.34;94804.88;1756608;82;21027;-72
2021/12/08 02:15:01;;;;;;;11.67;6.63;;;;;;;0.17;89.44;94808.36;1756570;81;21027;-72
2021/12/08 02:17:27;;;;;;;10.93;6.50;;;;;;;0.20;89.43;94812.27;1756503;82;21065;-72
2021/12/08 02:19:54;;;;;;;13.00;7.33;;;;;;;0.26;89.44;94811.04;1756602;82;21057;-71
2021/12/08 02:22:21;;;;;;;13.10;7.20;;;;;;;0.27;89.38;94812.77;1756249;82;21602;-72
2021/12/08 02:24:48;;;;;;;11.57;6.90;;;;;;;0.29;89.36;94808.90;1756685;82;20998;-72
2021/12/08 02:27:15;;;;;;;13.20;7.20;;;;;;;0.32;89.26;94804.59;1756746;82;21002;-72
2021/12/08 02:29:50;;;;;;;11.57;6.73;;;;;;;0.30;88.95;94805.44;1756572;82;21508;-72
2021/12/08 02:32:29;;;;;;;10.33;5.77;;;;;;;0.26;88.96;94810.17;1756364;81;21137;-72
2021/12/08 02:48:29;;;;;;;13.83;7.43;;;;;;;0.19;89.06;94816.59;1756275;82;21098;-72
2021/12/08 02:50:58;;;;;;;11.27;6.00;;;;;;;0.21;89.38;94817.91;1756597;81;20981;-72
2021/12/08 02:53:25;;;;;;;9.47;5.00;;;;;;;0.16;89.34;94818.30;1756288;82;21022;-72
2021/12/08 02:55:52;;;;;;;13.63;7.67;;;;;;;0.14;89.41;94813.09;1756490;82;20986;-72
2021/12/08 02:58:19;;;;;;;12.23;6.83;;;;;;;0.11;89.51;94809.61;1756385;82;21098;-72
2021/12/08 03:00:51;;;;;;;13.33;7.27;;;;;;;0.09;89.51;94812.62;1756579;81;21058;-72
2021/12/08 03:03:19;;;;;;;14.53;7.73;;;;;;;0.09;89.70;94820.40;1756302;82;21022;-72
2021/12/08 03:05:46;;;;;;;12.20;6.80;;;;;;;0.07;89.69;94817.78;1756365;82;20987;-72
2021/12/08 03:08:13;;;;;;;16.70;8.10;;;;;;;0.10;89.75;94819.13;1756258;82;21511;-72
2021/12/08 03:10:44;;;;;;;10.37;5.53;;;;;;;0.16;89.97;94819.60;1756490;82;21065;-72
2021/12/08 03:13:11;;;;;;;12.10;6.90;;;;;;;0.16;89.47;94821.77;1756825;82;21600;-72
2021/12/08 03:15:39;;;;;;;11.20;5.87;;;;;;;0.14;89.58;94822.61;1756566;81;21062;-72
2021/12/08 03:18:07;;;;;;;11.93;6.73;;;;;;;0.10;89.61;94819.13;1756328;82;21092;-72
2021/12/08 03:20:40;;;;;;;13.00;6.93;;;;;;;0.16;89.54;94821.77;1756805;82;21533;-73
2021/12/08 03:23:10;;;;;;;14.30;7.67;;;;;;;0.16;89.54;94823.49;1756287;82;21046;-72
2021/12/08 03:25:41;;;;;;;11.40;7.40;;;;;;;0.21;89.66;94820.51;1756592;82;21034;-72
2021/12/08 03:28:17;;;;;;;14.00;7.43;;;;;;;0.25;89.45;94823.98;1756384;81;21584;-72
2021/12/08 03:30:50;;;;;;;8.63;4.67;;;;;;;0.18;89.32;94822.65;1754716;82;21030;-72
2021/12/08 03:33:05;;;;;;;10.70;5.93;;;;;;;0.19;89.16;94830.86;1756041;81;20995;-72
2021/12/08 03:35:31;;;;;;;12.87;7.03;;;;;;;0.20;89.09;94830.02;1756453;82;21057;-72
2021/12/08 03:37:59;;;;;;;11.77;7.53;;;;;;;0.18;89.12;94831.73;1748596;81;21090;-72
2021/12/08 03:40:27;;;;;;;13.03;7.13;;;;;;;0.19;89.16;94839.08;1748730;82;21046;-72
2021/12/08 03:42:57;;;;;;;16.20;8.13;;;;;;;0.21;89.09;94837.38;1748908;82;21507;-72
2021/12/08 03:45:37;;;;;;;12.73;6.93;;;;;;;0.23;89.18;94834.37;1748668;81;20955;-72
2021/12/08 03:48:09;;;;;;;13.07;7.20;;;;;;;0.24;89.20;94834.80;1748351;82;21035;-72
2021/12/08 03:50:40;;;;;;;11.50;6.37;;;;;;;0.31;89.34;94833.14;1747836;82;20991;-72
2021/12/08 03:53:12;;;;;;;12.50;7.40;;;;;;;0.34;89.19;94834.45;1748179;81;21062;-71
2021/12/08 03:55:40;;;;;;;14.53;8.30;;;;;;;0.35;89.22;94833.58;1748839;82;21023;-72
2021/12/08 03:58:07;;;;;;;14.47;8.10;;;;;;;0.30;89.09;94833.54;1747503;82;21075;-72
2021/12/08 04:00:34;;;;;;;12.33;6.97;;;;;;;0.25;89.05;94832.63;1748340;82;21564;-72
2021/12/08 04:03:06;;;;;;;15.60;8.70;;;;;;;0.19;89.04;94838.64;1748574;82;21508;-72
2021/12/08 04:08:16;;;;;;;12.10;7.43;;;;;;;0.23;89.06;94833.07;1748443;82;21030;-72
2021/12/08 04:10:38;;;;;;;15.53;7.00;;;;;;;0.19;88.95;94839.08;1747346;82;21043;-72
2021/12/08 04:13:05;;;;;;;13.30;6.73;;;;;;;0.15;89.01;94838.20;1748460;82;21105;-72
2021/12/08 04:15:32;;;;;;;11.80;7.27;;;;;;;0.13;88.95;94844.22;1748325;81;20999;-72
2021/12/08 04:17:59;;;;;;;14.90;7.07;;;;;;;0.09;89.02;94848.50;1748329;82;21024;-72
2021/12/08 04:20:34;;;;;;;15.67;8.53;;;;;;;0.11;89.17;94852.41;1748462;81;21023;-72
2021/12/08 04:23:03;;;;;;;15.10;7.90;;;;;;;0.15;89.27;94860.25;1748453;82;21010;-71
2021/12/08 04:25:35;;;;;;;11.60;6.50;;;;;;;0.16;89.25;94855.92;1727650;82;21162;-72
2021/12/08 04:28:07;;;;;;;13.47;7.47;;;;;;;0.13;89.01;94861.95;1748755;81;20995;-72
2021/12/08 04:30:39;;;;;;;16.77;8.63;;;;;;;0.12;89.36;94865.81;1748759;82;21018;-72
2021/12/08 04:33:07;;;;;;;30.40;18.97;;;;;;;0.21;89.55;94864.61;1748280;82;21030;-72
2021/12/08 04:35:36;;;;;;;11.87;6.90;;;;;;;0.19;89.00;94866.31;1748295;82;21614;-72
2021/12/08 04:38:08;;;;;;;13.20;7.73;;;;;;;0.13;89.04;94861.08;1755988;82;21082;-72
2021/12/08 04:41:00;;;;;;;16.47;9.47;;;;;;;0.06;89.32;94864.47;1755783;82;21026;-72
2021/12/08 04:43:27;;;;;;;18.17;9.33;;;;;;;0.09;89.47;94864.49;1754740;82;21508;-72
2021/12/08 04:46:16;;;;;;;16.67;9.43;;;;;;;0.07;89.30;94882.62;1756352;82;21261;-72
2021/12/08 04:51:38;;;;;;;14.30;8.07;;;;;;;0.05;89.46;94880.47;1756482;82;21517;-72
2021/12/08 05:00:12;;;;;;;18.43;8.27;;;;;;;0.07;89.33;94882.62;1752274;82;21069;-72
2021/12/08 05:02:49;;;;;;;13.43;7.87;;;;;;;0.18;89.44;94890.53;1756627;81;21054;-73
2021/12/08 05:10:14;;;;;;;14.78;8.78;;;;;;;0.18;89.17;94891.39;1756377;82;20994;-73
2021/12/08 05:12:39;;;;;;;15.00;8.93;;;;;;;0.18;89.01;94890.53;1756897;81;21002;-72
2021/12/08 05:15:29;;;;;;;15.13;8.43;;;;;;;0.19;89.11;94895.72;1756942;82;20982;-72
2021/12/08 05:18:07;;;;;;;14.90;8.83;;;;;;;0.23;89.22;94894.04;1756840;81;21090;-72
2021/12/08 05:20:45;;;;;;;15.37;8.10;;;;;;;0.21;88.97;94895.31;1756452;82;21062;-72
2021/12/08 05:23:23;;;;;;;15.67;9.13;;;;;;;0.22;88.96;94906.55;1756675;81;21014;-73
2021/12/08 05:25:51;;;;;;;11.67;7.13;;;;;;;0.25;88.93;94901.38;1755896;82;21018;-73
2021/12/08 05:28:22;;;;;;;15.10;7.93;;;;;;;0.31;88.93;94901.90;1756654;82;21025;-73
2021/12/08 05:30:57;;;;;;;19.53;10.13;;;;;;;0.29;88.64;94903.17;1756703;82;21105;-73
2021/12/08 05:33:25;;;;;;;14.77;9.13;;;;;;;0.30;88.58;94907.48;1756212;82;21019;-73
2021/12/08 05:35:55;;;;;;;16.27;8.47;;;;;;;0.31;88.79;94910.98;1756804;82;21527;-73
2021/12/08 05:38:23;;;;;;;16.83;9.07;;;;;;;0.34;88.64;94910.56;1754146;82;21034;-73
2021/12/08 05:41:06;;;;;;;14.90;8.50;;;;;;;0.34;88.57;94909.70;1753964;82;21038;-73
2021/12/08 05:43:33;;;;;;;14.10;8.20;;;;;;;0.31;88.39;94914.44;1738465;82;21515;-73
2021/12/08 05:46:00;;;;;;;13.90;7.97;;;;;;;0.28;88.29;94914.41;1753891;81;21053;-73
2021/12/08 05:48:30;;;;;;;12.03;7.03;;;;;;;0.24;88.08;94911.77;1754425;81;21094;-73
2021/12/08 05:51:19;;;;;;;15.50;7.60;;;;;;;0.21;88.15;94913.91;1753700;81;20998;-71
2021/12/08 05:53:51;;;;;;;11.07;6.70;;;;;;;0.20;88.29;94913.45;1751681;82;21069;-74
2021/12/08 05:56:19;;;;;;;14.93;8.27;;;;;;;0.19;88.25;94911.28;1754199;82;21484;-74
2021/12/08 05:58:48;;;;;;;12.90;8.03;;;;;;;0.19;88.37;94922.95;1754079;81;21019;-74
2021/12/08 06:01:28;;;;;;;11.53;7.40;;;;;;;0.20;88.39;94920.83;1754077;81;21021;-74
2021/12/08 06:03:56;;;;;;;14.23;8.03;;;;;;;0.24;88.57;94917.82;1754208;82;21022;-74
2021/12/08 06:06:26;;;;;;;13.27;7.73;;;;;;;0.30;88.58;94923.49;1753871;82;21014;-73
2021/12/08 06:08:54;;;;;;;13.90;8.73;;;;;;;0.30;88.34;94918.30;1754290;82;21030;-76
2021/12/08 06:11:22;;;;;;;13.30;7.90;;;;;;;0.35;88.44;94916.63;1753948;82;21512;-72
2021/12/08 06:13:49;;;;;;;19.10;11.43;;;;;;;0.37;88.19;94907.13;1754289;82;21495;-72
2021/12/08 06:16:20;;;;;;;12.90;7.37;;;;;;;0.47;88.40;94914.14;1753917;82;21030;-69
2021/12/08 06:18:48;;;;;;;19.40;10.63;;;;;;;0.47;87.83;94916.73;1754407;81;21507;-70
2021/12/08 06:21:20;;;;;;;20.10;10.70;;;;;;;0.48;88.02;94920.20;1754251;82;21539;-72
2021/12/08 06:23:48;;;;;;;18.87;10.90;;;;;;;0.50;87.76;94924.55;1754177;82;21042;-70
2021/12/08 06:26:18;;;;;;;16.40;10.90;;;;;;;0.51;87.90;94925.44;1754296;82;21421;-69
2021/12/08 06:28:46;;;;;;;17.57;8.90;;;;;;;0.59;88.00;94929.83;1753818;82;21469;-69
2021/12/08 06:31:16;;;;;;;14.53;9.17;;;;;;;0.57;87.48;94927.64;1754034;82;21018;-70
2021/12/08 06:33:43;;;;;;;15.77;10.03;;;;;;;0.55;87.48;94924.59;1754268;82;21496;-70
2021/12/08 06:36:15;;;;;;;14.97;9.97;;;;;;;0.52;87.43;94933.66;1754168;81;21081;-69
2021/12/08 06:38:44;;;;;;;15.13;8.80;;;;;;;0.53;87.72;94924.59;1748913;82;21109;-68
2021/12/08 06:41:19;;;;;;;15.47;9.20;;;;;;;0.54;87.57;94924.16;1748421;81;20999;-68
2021/12/08 06:43:51;;;;;;;15.80;8.87;;;;;;;0.53;87.46;94927.59;1748163;81;21081;-70
2021/12/08 06:46:18;;;;;;;15.90;9.80;;;;;;;0.52;87.25;94925.87;1748797;82;21011;-71
2021/12/08 06:48:50;;;;;;;19.63;11.03;;;;;;;0.50;87.21;94932.33;1767975;81;21105;-70
2021/12/08 06:51:25;;;;;;;16.50;9.33;;;;;;;0.51;87.29;94924.14;1775030;81;21009;-68
2021/12/08 06:54:00;;;;;;;15.17;9.00;;;;;;;0.54;87.32;94926.33;1774929;81;21072;-69
2021/12/08 06:56:41;;;;;;;17.17;10.47;;;;;;;0.53;87.23;94922.41;1775166;81;20987;-69
2021/12/08 06:59:13;;;;;;;13.13;8.47;;;;;;;0.48;87.09;94922.39;1774323;80;21070;-66
2021/12/08 07:01:56;;;;;;;19.93;11.57;;;;;;;0.53;87.39;94928.49;1775022;81;21002;-69
2021/12/08 07:04:31;;;;;;;18.03;10.23;;;;;;;0.52;87.31;94924.14;1773427;81;20994;-71
2021/12/08 07:07:12;;;;;;;14.07;8.50;;;;;;;0.55;87.27;94925.89;1774701;80;21025;-70
2021/12/08 07:09:53;;;;;;;17.75;10.10;;;;;;;0.59;87.33;94928.53;1774274;80;21061;-69
2021/12/08 07:12:43;;;;;;;21.97;12.70;;;;;;;0.61;87.15;94936.34;1774254;80;21133;-70
2021/12/08 07:15:17;;;;;;;19.10;11.27;;;;;;;0.61;87.16;94933.31;1774536;81;21049;-71
2021/12/08 07:17:50;;;;;;;19.77;11.63;;;;;;;0.63;87.17;94930.31;1775197;81;21070;-69
2021/12/08 07:22:58;;;;;;;19.43;10.73;;;;;;;0.73;86.97;94922.58;1774997;81;21013;-70
2021/12/08 07:25:28;;;;;;;20.03;10.67;;;;;;;0.81;87.26;94923.09;1774863;81;21006;-71
2021/12/08 07:27:56;;;;;;;18.90;11.60;;;;;;;0.95;87.59;94921.03;1774695;81;21065;-69
2021/12/08 07:30:31;;;;;;;23.63;13.47;;;;;;;1.07;87.58;94919.39;1774629;80;21160;-69
2021/12/08 07:33:00;;;;;;;19.40;11.00;;;;;;;1.14;87.03;94918.15;1774353;80;21049;-70
2021/12/08 07:35:35;;;;;;;17.40;9.70;;;;;;;1.08;86.23;94928.05;1774587;80;21525;-70
2021/12/08 07:38:05;;;;;;;26.67;16.20;;;;;;;1.08;86.22;94925.05;1774532;80;20990;-69
2021/12/08 07:40:43;;;;;;;13.63;7.97;;;;;;;1.07;86.18;94925.88;1774808;81;21124;-69
2021/12/08 07:43:14;;;;;;;18.50;10.20;;;;;;;1.07;85.89;94931.08;1774956;80;21033;-69
2021/12/08 07:45:48;;;;;;;18.30;11.57;;;;;;;0.98;85.83;94936.62;1774901;80;21113;-69
2021/12/08 07:48:20;;;;;;;19.80;11.23;;;;;;;1.01;86.13;94936.24;1774879;80;21002;-70
2021/12/08 07:50:59;;;;;;;15.90;9.80;;;;;;;1.12;86.25;94928.95;1774955;81;21492;-69
2021/12/08 07:53:28;;;;;;;14.63;9.67;;;;;;;1.18;86.14;94925.95;1773079;80;21042;-69
2021/12/08 07:56:03;;;;;;;16.77;9.63;;;;;;;1.23;85.99;94922.95;1779029;81;21005;-70
2021/12/08 07:58:28;;;;;;;15.73;9.70;;;;;;;1.30;85.83;94926.47;1756895;81;21020;-69
2021/12/08 08:01:00;;;;;;;17.50;9.57;;;;;;;1.31;85.37;94924.33;1779009;81;20997;-70
2021/12/08 08:03:30;;;;;;;17.43;9.77;;;;;;;1.27;84.94;94929.05;1777331;80;21082;-70
2021/12/08 08:06:00;;;;;;;16.47;10.17;;;;;;;1.24;85.09;94933.80;1778901;81;21403;-70
2021/12/08 08:08:31;;;;;;;15.47;10.07;;;;;;;1.25;85.34;94932.92;1778426;81;21604;-70
2021/12/08 08:11:04;;;;;;;19.43;10.90;;;;;;;1.28;85.22;94934.23;1778248;81;21052;-69
2021/12/08 08:13:32;;;;;;;21.40;11.37;;;;;;;1.28;85.14;94943.34;1778317;80;21565;-72
2021/12/08 08:16:04;;;;;;;17.37;10.77;;;;;;;1.26;85.06;94944.19;1778797;81;21549;-73
2021/12/08 08:18:39;;;;;;;19.00;10.13;;;;;;;1.24;84.97;94947.23;1778657;80;21116;-73
2021/12/08 08:21:16;;;;;;;18.03;10.80;;;;;;;1.22;85.18;94945.91;1779029;81;21012;-72
2021/12/08 08:23:44;;;;;;;18.30;11.33;;;;;;;1.25;85.12;94945.05;1779440;81;20969;-74
2021/12/08 08:26:13;;;;;;;16.80;9.27;;;;;;;1.26;84.96;94950.28;1778838;81;21087;-75
2021/12/08 08:28:42;;;;;;;14.77;9.00;;;;;;;1.27;84.88;94947.24;1779242;81;21105;-72
2021/12/08 08:31:20;;;;;;;15.30;9.40;;;;;;;1.28;84.80;94954.17;1779433;81;21012;-74
2021/12/08 08:33:49;;;;;;;15.73;10.27;;;;;;;1.35;84.79;94953.79;1778936;80;21033;-74
2021/12/08 08:36:21;;;;;;;15.67;10.13;;;;;;;1.36;84.65;94946.42;1779357;81;21048;-81
2021/12/08 08:38:54;;;;;;;14.90;9.27;;;;;;;1.41;84.82;94947.31;1769650;80;21051;-80
2021/12/08 08:41:32;;;;;;;15.75;8.88;;;;;;;1.48;84.68;94951.70;1767218;80;21549;-75
2021/12/08 08:44:04;;;;;;;15.63;9.07;;;;;;;1.54;84.31;94950.45;1767398;80;21030;-74
2021/12/08 08:46:37;;;;;;;16.50;8.53;;;;;;;1.60;84.13;94947.87;1767323;80;21043;-70
2021/12/08 08:49:13;;;;;;;17.17;9.65;;;;;;;1.58;83.72;94959.12;1767080;80;21537;-74
2021/12/08 08:51:51;;;;;;;14.97;8.93;;;;;;;1.68;83.93;94957.02;1767049;81;21522;-74
2021/12/08 08:54:23;;;;;;;15.47;8.97;;;;;;;1.73;83.50;94960.06;1767443;81;21013;-75
2021/12/08 08:57:14;;;;;;;14.77;8.97;;;;;;;1.78;83.55;94958.80;1767097;81;21046;-71
2021/12/08 08:59:46;;;;;;;16.43;9.80;;;;;;;1.82;83.23;94953.19;1765985;81;21016;-74
2021/12/08 09:02:18;;;;;;;20.67;11.63;;;;;;;1.78;83.03;94956.63;1767542;81;21517;-83
2021/12/08 09:04:50;;;;;;;20.33;11.17;;;;;;;1.81;83.18;94952.73;1767365;80;21498;-72
2021/12/08 09:07:23;;;;;;;20.97;11.55;;;;;;;1.83;83.02;94953.62;1767414;81;21020;-72
2021/12/08 09:09:53;;;;;;;14.05;9.40;;;;;;;1.80;82.84;94953.61;1766873;80;21096;-74
2021/12/08 09:12:31;;;;;;;22.17;14.17;;;;;;;1.74;82.93;94957.06;1767110;80;21490;-76
2021/12/08 09:15:12;;;;;;;15.03;9.20;;;;;;;1.72;83.14;94954.44;1766464;81;21517;-75
2021/12/08 09:17:44;;;;;;;17.43;10.57;;;;;;;1.71;83.27;94954.42;1754976;81;20992;-75
2021/12/08 09:20:34;;;;;;;18.57;12.77;;;;;;;1.70;83.20;94952.25;1767263;81;21123;-74
2021/12/08 09:23:16;;;;;;;17.30;10.67;;;;;;;1.72;83.38;94947.94;1766801;80;21048;-74
2021/12/08 09:25:50;;;;;;;18.10;10.47;;;;;;;1.72;83.42;94947.94;1766939;80;21040;-74
2021/12/08 09:28:28;;;;;;;19.57;12.40;;;;;;;1.70;83.51;94943.59;1767452;80;21008;-77
2021/12/08 09:31:08;;;;;;;16.43;10.20;;;;;;;1.80;83.48;94938.87;1767005;80;21189;-77
2021/12/08 09:33:42;;;;;;;17.47;9.47;;;;;;;1.87;83.24;94938.47;1766101;81;21036;-74
2021/12/08 09:36:14;;;;;;;15.87;9.20;;;;;;;1.90;83.01;94937.18;1766320;81;21012;-74
2021/12/08 09:38:46;;;;;;;15.63;9.20;;;;;;;1.86;82.77;94936.72;1774775;80;21526;-81
2021/12/08 09:41:25;;;;;;;12.80;7.93;;;;;;;1.85;82.55;94937.16;1778916;81;21526;-79
2021/12/08 09:43:58;;;;;;;17.47;9.23;;;;;;;1.77;82.55;94933.66;1779043;80;20973;-79
2021/12/08 09:46:36;;;;;;;14.77;9.70;;;;;;;1.66;82.73;94932.72;1778822;80;21092;-73
2021/12/08 09:49:06;;;;;;;17.80;10.23;;;;;;;1.63;83.07;94928.38;1779254;81;21008;-78
2021/12/08 09:51:35;;;;;;;19.23;10.80;;;;;;;1.58;83.29;94922.72;1779247;81;21103;-77
2021/12/08 09:54:03;;;;;;;14.63;9.40;;;;;;;1.53;83.65;94927.03;1779569;81;21047;-77
2021/12/08 09:56:33;;;;;;;16.17;10.70;;;;;;;1.55;83.61;94926.61;1779089;81;20985;-80
2021/12/08 09:59:03;;;;;;;14.60;8.70;;;;;;;1.50;83.75;94925.28;1779148;81;20998;-76
2021/12/08 10:01:30;;;;;;;15.83;9.77;;;;;;;1.60;83.68;94931.41;1779558;81;21092;-76
2021/12/08 10:03:59;;;;;;;16.90;10.63;;;;;;;1.64;83.71;94926.23;1779101;81;21025;-72
2021/12/08 10:06:27;;;;;;;16.67;10.73;;;;;;;1.70;83.49;94924.95;1779528;81;21076;-75
2021/12/08 10:08:58;;;;;;;15.43;10.13;;;;;;;1.75;83.42;94933.22;1779365;81;21027;-75
2021/12/08 10:11:29;;;;;;;20.73;10.80;;;;;;;1.77;83.14;94931.06;1778727;81;21019;-78
2021/12/08 10:13:57;;;;;;;22.73;12.07;;;;;;;1.83;82.87;94934.97;1779137;81;21466;-73
2021/12/08 10:16:24;;;;;;;20.83;12.10;;;;;;;1.88;82.85;94921.99;1779150;81;21056;-82
2021/12/08 10:18:51;;;;;;;20.53;12.13;;;;;;;1.94;82.49;94928.09;1779498;81;21004;-76
2021/12/08 10:21:20;;;;;;;24.03;12.50;;;;;;;1.95;82.53;94918.55;1779461;81;21069;-73
2021/12/08 10:23:49;;;;;;;22.57;13.13;;;;;;;1.99;82.30;94922.92;1779314;81;21035;-74
2021/12/08 10:26:24;;;;;;;26.97;15.33;;;;;;;1.93;82.04;94922.88;1778611;81;21592;-73
2021/12/08 10:28:55;;;;;;;24.60;14.60;;;;;;;1.93;82.13;94925.48;1778128;80;21020;-69
2021/12/08 10:31:32;;;;;;;20.07;12.10;;;;;;;1.91;82.19;94922.00;1778532;81;21037;-75
2021/12/08 10:36:59;;;;;;;20.73;11.90;;;;;;;1.77;82.17;94925.86;1779145;81;21126;-72
2021/12/08 10:39:37;;;;;;;25.17;14.33;;;;;;;1.61;82.37;94933.13;1778480;81;21114;-75
2021/12/08 10:42:23;;;;;;;21.57;13.23;;;;;;;1.60;82.65;94934.87;1759574;81;21042;-76
2021/12/08 10:45:09;;;;;;;21.90;12.90;;;;;;;1.48;82.85;94936.09;1760120;81;21010;-71
2021/12/08 10:47:53;;;;;;;21.17;11.73;;;;;;;1.45;82.99;94934.79;1779041;80;21492;-73
2021/12/08 10:56:16;;;;;;;32.13;15.93;;;;;;;1.20;83.67;94948.92;1768810;81;20963;-73
2021/12/08 10:58:53;;;;;;;30.13;18.93;;;;;;;1.18;83.94;94944.57;1766398;81;21053;-72
2021/12/08 11:01:25;;;;;;;23.17;13.07;;;;;;;1.14;84.13;94941.09;1761272;81;21025;-71
2021/12/08 11:04:03;;;;;;;27.63;13.90;;;;;;;1.06;84.38;94945.38;1764399;81;21002;-72
2021/12/08 11:06:39;;;;;;;26.07;14.20;;;;;;;1.03;84.52;94951.42;1764249;81;21045;-71
2021/12/08 11:09:19;;;;;;;21.87;11.80;;;;;;;0.97;84.96;94947.45;1766111;81;21045;-72
2021/12/08 11:11:48;;;;;;;21.93;11.37;;;;;;;0.92;84.86;94945.25;1762793;81;20973;-72
2021/12/08 11:14:15;;;;;;;21.70;11.40;;;;;;;0.90;84.91;94948.27;1762055;81;21041;-72
2021/12/08 11:16:44;;;;;;;17.87;9.90;;;;;;;0.83;85.31;94945.16;1764900;81;21440;-72
2021/12/08 11:19:22;;;;;;;21.83;11.60;;;;;;;0.79;85.55;94940.39;1764482;81;20986;-71
2021/12/08 11:21:55;;;;;;;22.07;11.50;;;;;;;0.83;85.64;94936.97;1765149;81;20990;-72
2021/12/08 11:24:32;;;;;;;19.67;10.90;;;;;;;0.81;85.79;94927.43;1758529;81;21053;-72
2021/12/08 11:26:55;;;;;;;16.95;9.28;;;;;;;0.81;85.59;94929.59;1756756;81;21553;-71
2021/12/08 11:29:26;;;;;;;19.00;10.80;;;;;;;0.80;86.04;94928.27;1741340;81;21101;-71
2021/12/08 11:31:59;;;;;;;19.37;10.20;;;;;;;0.89;85.94;94921.86;1737488;82;21054;-72
2021/12/08 11:34:31;;;;;;;16.77;9.55;;;;;;;0.92;85.70;94918.41;1738308;82;21069;-71
2021/12/08 11:37:05;;;;;;;18.63;10.20;;;;;;;1.00;85.59;94921.50;1737467;82;20998;-71
2021/12/08 11:39:48;;;;;;;20.70;11.10;;;;;;;1.01;85.31;94918.06;1734151;82;21149;-71
2021/12/08 11:42:24;;;;;;;20.40;10.88;;;;;;;1.07;85.31;94924.58;1738914;82;21427;-72
2021/12/08 11:44:57;;;;;;;18.43;10.37;;;;;;;1.01;85.31;94918.50;1740454;82;21029;-71
2021/12/08 11:47:28;;;;;;;;;;;;;;;1.09;85.16;94922.01;1706516;83;21456;-72
2021/12/08 11:49:59;;;;;;;18.43;10.13;;;;;;;1.15;84.90;94924.63;1732786;83;20105;-71
2021/12/08 11:52:34;;;;;;;19.70;11.27;;;;;;;1.18;84.81;94923.78;1732873;83;21476;-72
2021/12/08 11:55:12;;;;;;;19.57;10.07;;;;;;;1.15;84.68;94928.53;1732855;83;21019;-72
2021/12/08 11:57:44;;;;;;;20.90;10.87;;;;;;;1.17;84.52;94934.61;1732703;83;20990;-72
2021/12/08 12:00:27;;;;;;;17.40;9.70;;;;;;;1.16;84.42;94925.50;1732854;83;21101;-72
2021/12/08 12:02:56;;;;;;;22.07;11.87;;;;;;;1.14;84.38;94929.84;1731212;83;21046;-72
2021/12/08 12:05:26;;;;;;;;;;;;;;;1.14;84.44;94921.61;1735541;83;21026;-71
2021/12/08 12:07:54;;;;;;;26.30;12.63;;;;;;;1.13;84.27;94921.58;1732834;82;20100;-72
2021/12/08 12:10:26;;;;;;;26.63;12.73;;;;;;;1.10;84.34;94926.33;1732447;83;21094;-72
2021/12/08 12:12:53;;;;;;;23.17;11.83;;;;;;;1.04;84.25;94924.56;1732655;83;21003;-72
2021/12/08 12:15:22;;;;;;;22.83;12.70;;;;;;;1.05;84.24;94920.23;1732547;83;21501;-72
2021/12/08 12:17:49;;;;;;;23.27;12.30;;;;;;;1.01;84.42;94933.64;1732686;83;20998;-72
2021/12/08 12:20:24;;;;;;;21.13;11.77;;;;;;;0.99;84.51;94929.30;1732890;83;21023;-72
2021/12/08 12:23:22;;;;;;;22.03;11.70;;;;;;;0.95;84.74;94937.91;1732720;83;20999;-72
2021/12/08 12:26:29;;;;;;;18.50;10.63;;;;;;;0.92;84.95;94928.37;1732940;83;21512;-72
2021/12/08 12:29:16;;;;;;;20.87;11.93;;;;;;;0.96;84.96;94930.55;1732348;83;21516;-72
2021/12/08 12:32:00;;;;;;;19.57;11.87;;;;;;;1.00;85.03;94932.32;1732498;83;21053;-72
2021/12/08 12:34:35;;;;;;;19.17;11.10;;;;;;;1.04;85.05;94932.80;1732802;83;21011;-71
2021/12/08 12:37:19;;;;;;;18.43;10.27;;;;;;;1.03;84.86;94928.04;1732680;83;21034;-72
2021/12/08 12:39:54;;;;;;;30.93;15.07;;;;;;;1.10;84.94;94935.86;1739338;81;21032;-72